首页
METAR-TAF:

METAR-TAF

机场 :

上海浦东国际机场

上海 / 浦东, 中华人民共和国

纬度: 31-07N, 经度: 121-46E, 海拔: 4米

当前天气观测

该预报发布于19分钟前的08:30 UTC
风速10节,风向北转东北
温度 6°C
湿度 61%
气压 1027 hPa
能见度10公里或以上
1500米以下无云,无积雨云

METAR: ZSPD 170830Z 03005MPS CAVOK 06/M01 Q1027 NOSIG

时间: 16:49 (08:49 UTC)

预报

该预报发布于5小时和33分钟前的03:16 UTC
预报有效从17日的 06点(UTC)到 18日的 06点(UTC)
风速8节,风向北转东北
能見度: 6000
多云层高于1500英尺
成为
从 17日的 22点(UTC)到 17日的 24点(UTC)
风速8节,风向

TAF: ZSPD 170316Z 1706/1806 02004MPS 6000 BKN015 TX08/1706Z TN03/1721Z BECMG 1722/1724 09004MPS

超过4000个机场的气象观测和天气预报(METAR&TAF报告)。

可查询的气象台以黄色和红色小点在地图上表示。

将鼠标移到小点上方,可查看气象台名称。

然后点击查看天气观测和预报。

如需切换地图:点击带黑十字的绿色按钮放大地图;点击带横线的绿色按钮缩小地图;或者点击绿色箭头查看邻近地区的地图。


METAR-TAF: